Time;durP1;ratioP1;P1;durP2;ratioP2;P2;SDS_P1;SDS_P2;PMS_P1;PMS_P2;Temp;Humidity;BMP_temperature;BMP_pressure;BME280_temperature;BME280_humidity;BME280_pressure;Samples;Min_cycle;Max_cycle;Signal;HPM_P1;HPM_P2
2021/09/16 00:00:05;;;;;;;0.30;0.30;;;17.30;99.90;;;;;;5053296;28;20466;-78
2021/09/16 00:02:32;;;;;;;0.50;0.30;;;17.30;99.90;;;;;;5053243;28;20480;-79
2021/09/16 00:04:59;;;;;;;0.40;0.30;;;17.30;99.90;;;;;;5053306;28;20457;-79
2021/09/16 00:07:26;;;;;;;0.40;0.30;;;17.30;99.90;;;;;;5054073;28;20450;-79
2021/09/16 00:09:53;;;;;;;0.30;0.30;;;17.30;99.90;;;;;;5052328;28;21004;-79
2021/09/16 00:12:21;;;;;;;0.33;0.30;;;17.30;99.90;;;;;;5053228;28;20454;-79
2021/09/16 00:14:47;;;;;;;0.40;0.30;;;17.30;99.90;;;;;;5053007;28;20449;-79
2021/09/16 00:17:14;;;;;;;0.67;0.67;;;17.30;99.90;;;;;;5053228;28;20452;-79
2021/09/16 00:19:41;;;;;;;0.50;0.30;;;17.30;99.90;;;;;;5052870;28;20817;-79
2021/09/16 00:22:08;;;;;;;0.43;0.30;;;17.30;99.90;;;;;;5053154;28;20446;-78
2021/09/16 00:24:34;;;;;;;0.47;0.30;;;17.20;99.90;;;;;;5053124;28;20445;-79
2021/09/16 00:27:01;;;;;;;0.40;0.40;;;17.20;99.90;;;;;;5052960;28;20945;-79
2021/09/16 00:29:29;;;;;;;0.40;0.40;;;17.20;99.90;;;;;;5052991;28;20462;-79
2021/09/16 00:31:56;;;;;;;0.40;0.30;;;17.20;99.90;;;;;;5052912;28;20450;-79
2021/09/16 00:34:23;;;;;;;0.40;0.40;;;17.20;99.90;;;;;;5052714;28;20444;-79
2021/09/16 00:36:50;;;;;;;0.40;0.40;;;17.20;99.90;;;;;;5052983;28;20450;-79
2021/09/16 00:39:16;;;;;;;0.40;0.30;;;17.20;99.90;;;;;;5052908;28;20465;-79
2021/09/16 00:41:43;;;;;;;0.40;0.40;;;17.20;99.90;;;;;;5052650;28;20818;-79
2021/09/16 00:44:10;;;;;;;0.47;0.30;;;17.20;99.90;;;;;;5053363;28;20481;-79
2021/09/16 00:46:38;;;;;;;0.40;0.40;;;17.20;99.90;;;;;;5052544;28;20469;-78
2021/09/16 00:49:06;;;;;;;0.30;0.30;;;17.20;99.90;;;;;;5052800;28;20476;-78
2021/09/16 00:51:34;;;;;;;0.87;0.40;;;17.20;99.90;;;;;;5052880;28;20557;-79
2021/09/16 00:54:03;;;;;;;1.00;0.40;;;17.20;99.90;;;;;;5052822;28;20445;-79
2021/09/16 00:56:31;;;;;;;0.57;0.30;;;17.20;99.90;;;;;;5052815;28;20441;-79
2021/09/16 00:59:00;;;;;;;0.30;0.30;;;17.20;99.90;;;;;;5052749;28;20469;-79
2021/09/16 01:01:27;;;;;;;0.50;0.40;;;17.20;99.90;;;;;;5052560;28;20470;-79
2021/09/16 01:03:56;;;;;;;0.60;0.40;;;17.20;99.90;;;;;;5052382;28;20481;-79
2021/09/16 01:06:23;;;;;;;0.60;0.30;;;17.20;99.90;;;;;;5052419;28;20995;-79
2021/09/16 01:08:51;;;;;;;0.50;0.30;;;17.20;99.90;;;;;;5052321;28;21007;-79
2021/09/16 01:11:19;;;;;;;0.30;0.30;;;17.20;99.90;;;;;;5052343;28;20953;-79
2021/09/16 01:13:47;;;;;;;0.30;0.30;;;17.20;99.90;;;;;;5052663;28;20450;-79
2021/09/16 01:16:14;;;;;;;0.30;0.30;;;17.20;99.90;;;;;;5052352;28;20437;-78
2021/09/16 01:18:41;;;;;;;0.40;0.40;;;17.30;99.90;;;;;;5052545;28;20466;-79
2021/09/16 01:21:10;;;;;;;0.40;0.37;;;17.30;99.90;;;;;;5052596;28;20453;-78
2021/09/16 01:23:38;;;;;;;0.43;0.30;;;17.30;99.90;;;;;;5055664;28;20996;-79
2021/09/16 01:26:04;;;;;;;0.33;0.30;;;17.30;99.90;;;;;;5056093;28;20457;-79
2021/09/16 01:28:31;;;;;;;3.30;0.70;;;17.30;99.90;;;;;;5056021;28;20474;-79
2021/09/16 01:30:58;;;;;;;0.40;0.30;;;17.30;99.90;;;;;;5055838;28;20442;-79
2021/09/16 01:33:25;;;;;;;0.60;0.50;;;17.20;99.90;;;;;;5055989;28;20457;-78
2021/09/16 01:35:52;;;;;;;0.43;0.40;;;17.20;99.90;;;;;;5056080;28;20457;-78
2021/09/16 01:38:19;;;;;;;0.40;0.30;;;17.20;99.90;;;;;;5055888;28;20481;-78
2021/09/16 01:40:47;;;;;;;0.30;0.30;;;17.30;99.90;;;;;;5055862;28;20453;-79
2021/09/16 01:43:15;;;;;;;0.70;0.40;;;17.20;99.90;;;;;;5055742;28;20481;-79
2021/09/16 01:45:42;;;;;;;0.40;0.30;;;17.30;99.90;;;;;;5055445;28;20477;-79
2021/09/16 01:48:09;;;;;;;0.57;0.30;;;17.20;99.90;;;;;;5055698;28;20449;-79
2021/09/16 01:50:35;;;;;;;0.30;0.30;;;17.20;99.90;;;;;;5055395;28;20940;-79
2021/09/16 01:53:02;;;;;;;0.40;0.30;;;17.20;99.90;;;;;;5055653;28;20449;-79
2021/09/16 01:55:29;;;;;;;0.40;0.40;;;17.30;99.90;;;;;;5055443;28;20459;-79
2021/09/16 01:57:57;;;;;;;0.40;0.30;;;17.20;99.90;;;;;;5055525;28;20449;-79
2021/09/16 02:00:24;;;;;;;0.40;0.37;;;17.20;99.90;;;;;;5055408;28;20465;-79
2021/09/16 02:02:51;;;;;;;0.40;0.40;;;17.20;99.90;;;;;;5055491;28;20453;-79
2021/09/16 02:05:17;;;;;;;0.60;0.30;;;17.30;99.90;;;;;;5055421;28;20795;-79
2021/09/16 02:07:44;;;;;;;0.40;0.30;;;17.30;99.90;;;;;;5055347;28;20453;-79
2021/09/16 02:10:11;;;;;;;0.40;0.30;;;17.30;99.90;;;;;;5055272;28;20861;-79
2021/09/16 02:12:38;;;;;;;0.40;0.30;;;17.30;99.90;;;;;;5054978;28;20461;-79
2021/09/16 02:15:08;;;;;;;0.60;0.40;;;17.30;99.90;;;;;;5054985;28;20442;-79
2021/09/16 02:17:34;;;;;;;0.30;0.20;;;17.30;99.90;;;;;;5055211;28;20442;-79
2021/09/16 02:20:01;;;;;;;0.50;0.40;;;17.30;99.90;;;;;;5054733;28;20466;-79
2021/09/16 02:22:28;;;;;;;0.30;0.30;;;17.30;99.90;;;;;;5055137;28;20449;-79
2021/09/16 02:24:55;;;;;;;0.40;0.40;;;17.30;99.90;;;;;;5054944;28;20497;-79
2021/09/16 02:27:21;;;;;;;0.40;0.33;;;17.30;99.90;;;;;;5054995;28;20457;-79
2021/09/16 02:29:48;;;;;;;0.40;0.40;;;17.30;99.90;;;;;;5054883;28;20472;-79
2021/09/16 02:32:16;;;;;;;0.40;0.30;;;17.30;99.90;;;;;;5054216;28;20434;-79
2021/09/16 02:34:43;;;;;;;0.30;0.30;;;17.30;99.90;;;;;;5054851;28;20556;-79
2021/09/16 02:37:10;;;;;;;0.40;0.30;;;17.30;99.90;;;;;;5054786;28;20446;-79
2021/09/16 02:39:37;;;;;;;0.93;0.40;;;17.30;99.90;;;;;;5054689;28;20470;-79
2021/09/16 02:42:04;;;;;;;1.03;0.50;;;17.20;99.90;;;;;;5054709;28;20445;-79
2021/09/16 02:44:31;;;;;;;0.60;0.30;;;17.20;99.90;;;;;;5054574;28;20485;-79
2021/09/16 02:46:58;;;;;;;0.37;0.37;;;17.20;99.90;;;;;;5054160;28;20481;-79
2021/09/16 02:49:26;;;;;;;0.87;0.30;;;17.20;99.90;;;;;;5054270;28;20465;-84
2021/09/16 02:51:52;;;;;;;0.50;0.30;;;17.20;99.90;;;;;;5054411;28;20953;-85
2021/09/16 02:54:19;;;;;;;0.50;0.47;;;17.20;99.90;;;;;;5054470;28;20450;-85
2021/09/16 02:56:47;;;;;;;0.40;0.40;;;17.20;99.90;;;;;;5054516;28;20457;-85
2021/09/16 02:59:14;;;;;;;0.83;0.40;;;17.20;99.90;;;;;;5054204;28;20476;-85
2021/09/16 03:01:41;;;;;;;0.30;0.30;;;17.20;99.90;;;;;;5054229;28;20441;-84
2021/09/16 03:04:07;;;;;;;0.30;0.30;;;17.10;99.90;;;;;;5054026;28;20484;-85
2021/09/16 03:06:36;;;;;;;0.30;0.30;;;17.20;99.90;;;;;;5054360;28;20456;-85
2021/09/16 03:09:03;;;;;;;1.33;0.37;;;17.20;99.90;;;;;;5054649;28;20802;-85
2021/09/16 03:11:29;;;;;;;0.40;0.37;;;17.20;99.90;;;;;;5054252;28;20461;-85
2021/09/16 03:13:56;;;;;;;0.30;0.20;;;17.10;99.90;;;;;;5054185;28;20445;-84
2021/09/16 03:16:23;;;;;;;0.30;0.30;;;17.10;99.90;;;;;;5053934;28;20453;-79
2021/09/16 03:18:49;;;;;;;0.40;0.40;;;17.20;99.90;;;;;;5053952;28;20470;-79
2021/09/16 03:21:16;;;;;;;0.30;0.30;;;17.20;99.90;;;;;;5053720;28;20945;-79
2021/09/16 03:23:45;;;;;;;1.27;0.40;;;17.20;99.90;;;;;;5045581;28;20481;-78
2021/09/16 03:26:11;;;;;;;0.50;0.40;;;17.20;99.90;;;;;;5053875;28;20802;-78
2021/09/16 03:28:40;;;;;;;0.40;0.40;;;17.10;99.90;;;;;;5053513;28;20457;-79
2021/09/16 03:31:07;;;;;;;0.50;0.40;;;17.00;99.90;;;;;;5053809;28;20461;-81
2021/09/16 03:33:34;;;;;;;0.40;0.30;;;17.00;99.90;;;;;;5053463;28;20793;-81
2021/09/16 03:36:01;;;;;;;0.57;0.50;;;16.90;99.90;;;;;;5053706;28;20450;-81
2021/09/16 03:38:28;;;;;;;0.83;0.60;;;16.80;99.90;;;;;;5053622;28;20457;-81
2021/09/16 03:40:56;;;;;;;0.50;0.30;;;16.80;99.90;;;;;;5053426;28;20441;-81
2021/09/16 03:43:23;;;;;;;0.60;0.40;;;16.80;99.90;;;;;;5053231;28;20940;-81
2021/09/16 03:45:50;;;;;;;0.30;0.30;;;16.80;99.90;;;;;;5052516;28;20477;-81
2021/09/16 03:48:16;;;;;;;0.50;0.50;;;16.80;99.90;;;;;;5053441;28;20441;-81
2021/09/16 03:50:43;;;;;;;0.60;0.40;;;16.80;99.90;;;;;;5053501;28;20441;-81
2021/09/16 03:53:10;;;;;;;0.40;0.30;;;16.80;99.90;;;;;;5053149;28;20953;-81
2021/09/16 03:55:37;;;;;;;0.30;0.30;;;16.80;99.90;;;;;;5053087;28;20957;-81
2021/09/16 03:58:05;;;;;;;0.40;0.30;;;16.80;99.90;;;;;;5053186;28;20801;-81
2021/09/16 04:00:32;;;;;;;0.37;0.30;;;16.70;99.90;;;;;;5052971;28;21003;-81
2021/09/16 04:03:06;;;;;;;0.57;0.30;;;16.70;99.90;;;;;;5053060;28;20949;-81
2021/09/16 04:05:33;;;;;;;1.03;0.60;;;16.70;99.90;;;;;;5053083;28;20465;-81
2021/09/16 04:07:59;;;;;;;1.40;0.50;;;16.70;99.90;;;;;;5053017;28;20438;-81
2021/09/16 04:10:26;;;;;;;0.30;0.30;;;16.70;99.90;;;;;;5053190;28;20476;-81
2021/09/16 04:12:53;;;;;;;0.40;0.30;;;16.70;99.90;;;;;;5052994;28;20434;-81
2021/09/16 04:15:21;;;;;;;0.40;0.40;;;16.70;99.90;;;;;;5053223;28;20457;-81
2021/09/16 04:17:48;;;;;;;0.40;0.40;;;16.70;99.90;;;;;;5053186;28;20454;-81
2021/09/16 04:20:15;;;;;;;0.40;0.33;;;16.70;99.90;;;;;;5053109;28;20476;-81
2021/09/16 04:22:42;;;;;;;0.80;0.40;;;16.70;99.90;;;;;;5053158;28;20445;-81
2021/09/16 04:25:09;;;;;;;0.50;0.40;;;16.70;99.90;;;;;;5052718;28;21000;-81
2021/09/16 04:27:36;;;;;;;0.50;0.40;;;16.70;99.90;;;;;;5053105;28;20456;-81
2021/09/16 04:30:03;;;;;;;0.50;0.40;;;16.70;99.90;;;;;;5052995;28;20473;-78
2021/09/16 04:32:31;;;;;;;0.30;0.30;;;16.70;99.90;;;;;;5053067;28;20453;-78
2021/09/16 04:34:58;;;;;;;0.40;0.33;;;16.70;99.90;;;;;;5053001;28;20481;-77
2021/09/16 04:37:25;;;;;;;0.43;0.40;;;16.60;99.90;;;;;;5052993;28;20515;-77
2021/09/16 04:39:52;;;;;;;0.40;0.40;;;16.60;99.90;;;;;;5052889;28;20469;-77
2021/09/16 04:42:19;;;;;;;1.00;0.47;;;16.60;99.90;;;;;;5052977;28;20449;-77
2021/09/16 04:44:45;;;;;;;0.30;0.30;;;16.60;99.90;;;;;;5052356;28;20481;-79
2021/09/16 04:47:12;;;;;;;0.40;0.30;;;16.60;99.90;;;;;;5052943;28;20433;-79
2021/09/16 04:49:40;;;;;;;1.43;0.40;;;16.60;99.90;;;;;;5052473;28;20466;-79
2021/09/16 04:52:07;;;;;;;2.53;1.33;;;16.60;99.90;;;;;;5052521;28;20979;-79
2021/09/16 04:54:34;;;;;;;0.40;0.40;;;16.50;99.90;;;;;;5052566;28;20470;-78
2021/09/16 04:57:00;;;;;;;0.50;0.30;;;16.50;99.90;;;;;;5055350;28;20434;-78
2021/09/16 04:59:27;;;;;;;0.70;0.70;;;16.50;99.90;;;;;;5056602;28;20469;-78
2021/09/16 05:01:54;;;;;;;0.40;0.40;;;16.40;99.90;;;;;;5056283;28;20987;-79
2021/09/16 05:04:21;;;;;;;0.40;0.40;;;16.40;99.90;;;;;;5056160;28;20489;-79
2021/09/16 05:06:49;;;;;;;0.77;0.60;;;16.40;99.90;;;;;;5056413;28;20461;-78
2021/09/16 05:09:15;;;;;;;0.60;0.37;;;16.30;99.90;;;;;;5056389;28;20465;-78
2021/09/16 05:11:42;;;;;;;0.73;0.50;;;16.30;99.90;;;;;;5056130;28;20971;-78
2021/09/16 05:14:11;;;;;;;0.70;0.40;;;16.30;99.90;;;;;;5056441;28;20445;-81
2021/09/16 05:16:38;;;;;;;1.07;0.40;;;16.30;99.90;;;;;;5056900;28;20449;-81
2021/09/16 05:19:05;;;;;;;0.73;0.73;;;16.30;99.90;;;;;;5056034;28;20529;-78
2021/09/16 05:21:32;;;;;;;0.50;0.40;;;16.30;99.90;;;;;;5055879;28;20948;-78
2021/09/16 05:24:00;;;;;;;0.50;0.50;;;16.30;99.90;;;;;;5055799;28;20945;-79
2021/09/16 05:26:27;;;;;;;0.83;0.50;;;16.30;99.90;;;;;;5055764;28;20457;-79
2021/09/16 05:28:54;;;;;;;0.30;0.30;;;16.30;99.90;;;;;;5055766;28;20458;-79
2021/09/16 05:31:20;;;;;;;0.30;0.30;;;16.20;99.90;;;;;;5056038;28;20449;-79
2021/09/16 05:33:47;;;;;;;0.70;0.50;;;16.20;99.90;;;;;;5056030;28;20446;-80
2021/09/16 05:36:14;;;;;;;0.60;0.40;;;16.20;99.90;;;;;;5056100;28;20446;-81
2021/09/16 05:38:41;;;;;;;0.40;0.30;;;16.20;99.90;;;;;;5055591;28;20470;-81
2021/09/16 05:41:19;;;;;;;1.00;0.67;;;16.20;99.90;;;;;;5055859;28;20460;-81
2021/09/16 05:43:46;;;;;;;0.93;0.47;;;16.20;99.90;;;;;;5055893;28;20869;-82
2021/09/16 05:46:13;;;;;;;0.80;0.60;;;16.20;99.90;;;;;;5055292;28;20504;-82
2021/09/16 05:48:40;;;;;;;0.53;0.53;;;16.30;99.90;;;;;;5055323;28;20469;-82
2021/09/16 05:51:06;;;;;;;0.40;0.40;;;16.30;99.90;;;;;;5055708;28;20802;-80
2021/09/16 05:53:33;;;;;;;0.60;0.40;;;16.30;99.90;;;;;;5055350;28;20430;-79
2021/09/16 05:56:00;;;;;;;0.90;0.40;;;16.30;99.90;;;;;;5055556;28;20453;-79
2021/09/16 05:58:28;;;;;;;0.40;0.33;;;16.40;99.90;;;;;;5055384;28;20445;-79
2021/09/16 06:00:55;;;;;;;0.60;0.40;;;16.40;99.90;;;;;;5055185;28;20453;-79
2021/09/16 06:03:21;;;;;;;0.50;0.50;;;16.40;99.90;;;;;;5055471;28;20458;-78
2021/09/16 06:05:48;;;;;;;0.40;0.30;;;16.40;99.90;;;;;;5055330;28;20485;-79
2021/09/16 06:08:15;;;;;;;0.40;0.30;;;16.50;99.90;;;;;;5054456;28;20457;-78
2021/09/16 06:10:42;;;;;;;0.40;0.33;;;16.50;99.90;;;;;;5047105;28;20442;-80
2021/09/16 06:13:09;;;;;;;0.40;0.40;;;16.50;99.90;;;;;;5055280;28;20450;-80
2021/09/16 06:15:37;;;;;;;0.33;0.30;;;16.50;99.90;;;;;;5055203;28;20438;-80
2021/09/16 06:18:04;;;;;;;0.40;0.40;;;16.50;99.90;;;;;;5055202;28;20442;-80
2021/09/16 06:20:31;;;;;;;0.30;0.30;;;16.50;99.90;;;;;;5055087;28;20477;-80
2021/09/16 06:22:58;;;;;;;0.77;0.50;;;16.50;99.90;;;;;;5055065;28;20461;-80
2021/09/16 06:25:24;;;;;;;0.50;0.33;;;16.50;99.90;;;;;;5054847;28;20477;-80
2021/09/16 06:27:51;;;;;;;0.53;0.53;;;16.50;99.90;;;;;;5054643;28;20937;-80
2021/09/16 06:30:18;;;;;;;1.03;0.47;;;16.60;99.90;;;;;;5054864;28;20470;-80
2021/09/16 06:32:47;;;;;;;0.60;0.30;;;16.60;99.90;;;;;;5054850;28;20805;-81
2021/09/16 06:35:15;;;;;;;0.40;0.40;;;16.60;99.90;;;;;;5054520;28;20457;-81
2021/09/16 06:37:43;;;;;;;0.40;0.30;;;16.60;99.90;;;;;;5054747;28;20457;-80
2021/09/16 06:40:11;;;;;;;0.37;0.33;;;16.60;99.90;;;;;;5054632;28;20474;-80
2021/09/16 06:42:38;;;;;;;0.30;0.30;;;16.60;99.90;;;;;;5054423;28;20465;-80
2021/09/16 06:45:06;;;;;;;1.63;0.40;;;16.70;99.90;;;;;;5054285;28;20489;-80
2021/09/16 06:47:33;;;;;;;0.40;0.30;;;16.70;99.90;;;;;;5054559;28;20461;-81
2021/09/16 06:50:01;;;;;;;0.70;0.50;;;16.70;99.90;;;;;;5054386;28;20458;-81
2021/09/16 06:52:28;;;;;;;0.30;0.30;;;16.80;99.90;;;;;;5055330;28;20450;-81
2021/09/16 06:54:56;;;;;;;0.50;0.40;;;16.90;99.90;;;;;;5054419;28;20437;-81
2021/09/16 06:57:23;;;;;;;0.83;0.83;;;16.90;99.90;;;;;;5054432;28;20485;-78
2021/09/16 06:59:50;;;;;;;0.70;0.40;;;17.00;99.90;;;;;;5054363;28;20470;-77
2021/09/16 07:02:17;;;;;;;0.50;0.40;;;17.10;99.90;;;;;;5054027;28;20798;-77
2021/09/16 07:04:44;;;;;;;0.70;0.60;;;17.20;99.90;;;;;;5053951;28;20472;-77
2021/09/16 07:07:12;;;;;;;0.30;0.30;;;17.20;99.90;;;;;;5054320;28;20430;-78
2021/09/16 07:09:39;;;;;;;0.30;0.30;;;17.20;99.90;;;;;;5053809;28;20472;-77
2021/09/16 07:12:06;;;;;;;0.40;0.40;;;17.50;99.90;;;;;;5054197;28;20425;-77
2021/09/16 07:14:33;;;;;;;0.40;0.37;;;17.50;99.90;;;;;;5054158;28;20441;-77
2021/09/16 07:17:00;;;;;;;0.40;0.30;;;17.50;99.90;;;;;;5054103;28;20430;-78
2021/09/16 07:19:27;;;;;;;0.60;0.40;;;17.50;99.90;;;;;;5053598;28;20995;-77
2021/09/16 07:21:54;;;;;;;0.40;0.40;;;17.40;99.90;;;;;;5053941;28;20457;-77
2021/09/16 07:24:22;;;;;;;0.67;0.47;;;17.40;99.90;;;;;;5053599;28;20449;-77
2021/09/16 07:26:51;;;;;;;0.40;0.40;;;17.40;99.90;;;;;;5053869;28;20434;-77
2021/09/16 07:29:18;;;;;;;0.60;0.60;;;17.40;99.90;;;;;;5053783;28;20465;-77
2021/09/16 07:31:45;;;;;;;0.50;0.40;;;17.40;99.90;;;;;;5053780;28;20445;-77
2021/09/16 07:34:12;;;;;;;0.80;0.80;;;17.30;99.90;;;;;;5053455;28;20964;-77
2021/09/16 07:36:39;;;;;;;0.50;0.50;;;17.30;99.90;;;;;;5053941;28;20456;-77
2021/09/16 07:39:06;;;;;;;0.43;0.43;;;17.30;99.90;;;;;;5053346;28;20507;-78
2021/09/16 07:41:35;;;;;;;0.50;0.40;;;17.30;99.90;;;;;;5053576;28;20453;-78
2021/09/16 07:44:01;;;;;;;0.40;0.40;;;17.30;99.90;;;;;;5053600;28;20458;-79
2021/09/16 07:46:28;;;;;;;0.40;0.40;;;17.30;99.90;;;;;;5053038;28;20497;-79
2021/09/16 07:48:56;;;;;;;0.40;0.40;;;17.30;99.90;;;;;;5053330;28;20540;-79
2021/09/16 07:51:22;;;;;;;1.37;0.50;;;17.30;99.90;;;;;;5053152;28;20948;-79
2021/09/16 07:53:49;;;;;;;0.73;0.40;;;17.30;99.90;;;;;;5053388;28;20450;-79
2021/09/16 07:56:16;;;;;;;1.00;0.37;;;17.40;99.90;;;;;;5053414;28;20806;-79
2021/09/16 07:58:44;;;;;;;0.63;0.63;;;17.30;99.90;;;;;;5053298;28;20466;-79
2021/09/16 08:01:11;;;;;;;0.40;0.40;;;17.30;99.90;;;;;;5053337;28;20446;-79
2021/09/16 08:03:38;;;;;;;1.23;0.57;;;17.20;99.90;;;;;;5053059;28;20982;-79
2021/09/16 08:06:06;;;;;;;1.70;0.40;;;17.20;99.90;;;;;;5052902;28;20481;-79
2021/09/16 08:08:32;;;;;;;1.13;0.63;;;17.20;99.90;;;;;;5053196;28;20561;-79
2021/09/16 08:11:00;;;;;;;0.50;0.40;;;17.10;99.90;;;;;;5053198;28;20457;-79
2021/09/16 08:13:27;;;;;;;0.40;0.40;;;17.10;99.90;;;;;;5053258;28;20481;-80
2021/09/16 08:15:56;;;;;;;0.60;0.30;;;17.10;99.90;;;;;;5053179;28;20453;-80
2021/09/16 08:18:22;;;;;;;0.40;0.40;;;17.00;99.90;;;;;;5053107;28;20442;-80
2021/09/16 08:20:50;;;;;;;0.40;0.30;;;16.90;99.90;;;;;;5053163;28;20449;-78
2021/09/16 08:23:18;;;;;;;0.50;0.43;;;16.80;99.90;;;;;;5053072;28;20489;-79
2021/09/16 08:25:46;;;;;;;0.40;0.30;;;16.80;99.90;;;;;;5052939;28;20509;-79
2021/09/16 08:28:14;;;;;;;0.30;0.30;;;16.70;99.90;;;;;;5052660;28;20457;-80
2021/09/16 08:30:41;;;;;;;0.30;0.30;;;16.70;99.90;;;;;;5053642;28;20445;-80
2021/09/16 08:33:09;;;;;;;0.40;0.30;;;16.70;99.90;;;;;;5056745;28;20807;-81
2021/09/16 08:35:36;;;;;;;0.40;0.30;;;16.70;99.90;;;;;;5057019;28;20457;-81
2021/09/16 08:38:03;;;;;;;0.30;0.30;;;16.70;99.90;;;;;;5057049;28;20456;-80
2021/09/16 08:40:30;;;;;;;0.30;0.30;;;16.60;99.90;;;;;;5056864;28;20481;-80
2021/09/16 08:42:57;;;;;;;0.40;0.40;;;16.60;99.90;;;;;;5056710;28;20430;-81
2021/09/16 08:45:24;;;;;;;0.30;0.30;;;16.60;99.90;;;;;;5056589;28;20512;-81
2021/09/16 08:47:53;;;;;;;0.30;0.20;;;16.60;99.90;;;;;;5056649;28;20434;-81
2021/09/16 08:50:24;;;;;;;0.30;0.30;;;16.60;99.90;;;;;;5056767;28;20461;-81
2021/09/16 08:52:51;;;;;;;0.40;0.30;;;16.50;99.90;;;;;;5056496;28;20434;-81
2021/09/16 08:55:20;;;;;;;1.17;0.30;;;16.50;99.90;;;;;;5056661;28;20434;-81
2021/09/16 08:57:55;;;;;;;6.43;0.40;;;16.50;99.90;;;;;;5056712;28;20453;-81
2021/09/16 09:00:22;;;;;;;0.30;0.30;;;16.50;99.90;;;;;;5056626;28;20477;-82
2021/09/16 09:02:51;;;;;;;0.40;0.30;;;16.50;99.90;;;;;;5056578;28;20446;-80
2021/09/16 09:05:18;;;;;;;0.30;0.30;;;16.50;99.90;;;;;;5056496;28;20496;-84
2021/09/16 09:07:49;;;;;;;0.40;0.30;;;16.40;99.90;;;;;;5056588;28;20812;-83
2021/09/16 09:10:35;;;;;;;0.40;0.30;;;16.50;99.90;;;;;;5056511;28;20470;-83
2021/09/16 09:13:02;;;;;;;0.37;0.33;;;16.40;99.90;;;;;;5056427;28;20437;-84
2021/09/16 09:15:29;;;;;;;0.30;0.30;;;16.40;99.90;;;;;;5056472;28;20448;-85
2021/09/16 09:18:04;;;;;;;0.30;0.30;;;16.40;99.90;;;;;;5056103;28;20828;-85
2021/09/16 09:20:32;;;;;;;0.40;0.40;;;16.30;99.90;;;;;;5056066;28;20860;-83
2021/09/16 09:23:00;;;;;;;0.30;0.30;;;16.20;99.90;;;;;;5056285;28;20427;-83
2021/09/16 09:25:30;;;;;;;0.30;0.30;;;16.10;99.90;;;;;;5056182;28;20472;-83
2021/09/16 09:27:57;;;;;;;1.13;0.40;;;16.10;99.90;;;;;;5056795;28;20445;-83
2021/09/16 09:30:27;;;;;;;0.87;0.43;;;16.00;99.90;;;;;;5056212;28;20492;-82
2021/09/16 09:32:57;;;;;;;1.03;1.00;;;16.00;99.90;;;;;;5056627;28;20434;-81
2021/09/16 09:35:34;;;;;;;1.37;0.73;;;16.00;99.90;;;;;;5057352;28;20492;-82
2021/09/16 09:38:05;;;;;;;1.47;0.70;;;15.90;99.90;;;;;;5057094;28;20444;-81
2021/09/16 09:40:35;;;;;;;0.50;0.40;;;15.90;99.90;;;;;;5056514;28;20462;-81
2021/09/16 09:43:18;;;;;;;1.97;1.10;;;15.90;99.90;;;;;;5054881;28;20439;-81
2021/09/16 09:46:05;;;;;;;1.20;0.93;;;15.80;99.90;;;;;;5055655;28;20497;-81
2021/09/16 09:48:33;;;;;;;2.00;1.30;;;15.80;99.90;;;;;;5055776;28;20438;-81
2021/09/16 09:51:01;;;;;;;1.60;0.73;;;15.70;99.90;;;;;;5055882;28;20430;-80
2021/09/16 09:53:29;;;;;;;0.50;0.40;;;15.70;99.90;;;;;;5055788;28;20434;-80
2021/09/16 09:55:56;;;;;;;1.67;1.40;;;15.70;99.90;;;;;;5055680;28;20433;-81
2021/09/16 09:58:35;;;;;;;3.80;0.83;;;15.70;99.90;;;;;;5055639;28;20441;-80
2021/09/16 10:01:26;;;;;;;2.40;0.63;;;15.70;99.90;;;;;;5055615;28;20440;-81
2021/09/16 10:03:53;;;;;;;2.03;0.90;;;15.70;99.90;;;;;;5055355;28;20426;-80
2021/09/16 10:06:20;;;;;;;1.00;0.50;;;15.80;99.90;;;;;;5055406;28;20469;-80
2021/09/16 10:09:07;;;;;;;1.70;1.00;;;15.80;99.90;;;;;;5055033;28;20973;-80
2021/09/16 10:11:39;;;;;;;1.93;0.80;;;15.90;99.90;;;;;;5055383;28;20433;-79
2021/09/16 10:14:06;;;;;;;1.23;1.13;;;16.00;99.90;;;;;;5055415;28;20913;-80
2021/09/16 10:16:33;;;;;;;1.13;0.67;;;16.00;99.90;;;;;;5055673;28;20433;-80
2021/09/16 10:19:00;;;;;;;3.20;1.27;;;16.00;99.90;;;;;;5055351;28;20468;-81
2021/09/16 10:21:27;;;;;;;1.50;0.80;;;16.20;99.90;;;;;;5056597;28;20419;-80
2021/09/16 10:23:57;;;;;;;0.93;0.90;;;16.10;99.90;;;;;;5055586;28;20411;-80
2021/09/16 10:26:32;;;;;;;0.70;0.70;;;16.10;99.90;;;;;;5055883;28;20999;-80
2021/09/16 10:28:59;;;;;;;1.70;0.90;;;16.10;99.90;;;;;;5056550;28;20469;-80
2021/09/16 10:31:26;;;;;;;1.73;1.63;;;16.20;99.90;;;;;;5057053;28;20940;-80
2021/09/16 10:33:53;;;;;;;0.80;0.70;;;16.20;99.90;;;;;;5056461;28;20465;-80
2021/09/16 10:36:20;;;;;;;2.10;1.43;;;16.20;99.90;;;;;;5055791;28;20450;-81
2021/09/16 10:38:48;;;;;;;3.33;0.80;;;16.20;99.90;;;;;;5055126;28;20461;-79
2021/09/16 10:41:22;;;;;;;1.60;1.17;;;16.20;99.90;;;;;;5054751;28;20441;-80
2021/09/16 10:44:08;;;;;;;2.00;1.07;;;16.20;99.90;;;;;;5054983;28;20538;-80
2021/09/16 10:46:37;;;;;;;1.97;0.97;;;16.20;99.90;;;;;;5050598;28;20485;-80
2021/09/16 10:49:28;;;;;;;1.23;0.60;;;16.30;99.90;;;;;;5054626;28;20980;-80
2021/09/16 10:51:56;;;;;;;1.73;0.93;;;16.20;99.90;;;;;;5054640;28;20437;-80
2021/09/16 10:54:48;;;;;;;1.87;0.80;;;16.20;99.90;;;;;;5054306;28;20429;-80
2021/09/16 10:57:21;;;;;;;2.00;0.93;;;16.10;99.90;;;;;;5053328;28;20454;-80
2021/09/16 11:00:10;;;;;;;3.37;1.07;;;16.20;99.90;;;;;;5054593;28;20473;-80
2021/09/16 11:03:13;;;;;;;3.80;0.80;;;16.30;99.90;;;;;;5054558;28;20865;-80
2021/09/16 11:05:46;;;;;;;2.63;1.10;;;16.50;99.90;;;;;;5054097;28;20437;-80
2021/09/16 11:08:14;;;;;;;1.57;0.90;;;16.60;99.90;;;;;;5053882;28;20457;-80
2021/09/16 11:11:02;;;;;;;3.63;1.40;;;16.60;99.90;;;;;;5053949;28;20445;-80
2021/09/16 11:13:37;;;;;;;2.93;1.50;;;16.60;99.90;;;;;;5052350;28;20453;-80
2021/09/16 11:16:05;;;;;;;5.33;1.77;;;16.50;99.90;;;;;;5053830;28;20901;-80
2021/09/16 11:18:32;;;;;;;2.70;1.30;;;16.60;99.90;;;;;;5053978;28;20426;-80
2021/09/16 11:21:01;;;;;;;2.80;1.00;;;16.50;99.90;;;;;;5054084;28;20492;-80
2021/09/16 11:23:41;;;;;;;2.80;1.20;;;16.60;99.90;;;;;;5053658;28;20932;-80
2021/09/16 11:26:14;;;;;;;3.10;0.90;;;16.60;99.90;;;;;;5053860;28;20473;-80
2021/09/16 11:28:43;;;;;;;3.90;2.00;;;16.80;99.90;;;;;;5053797;28;20461;-80
2021/09/16 11:31:17;;;;;;;2.47;1.67;;;16.90;99.90;;;;;;5053566;28;20442;-80
2021/09/16 11:33:44;;;;;;;7.47;2.60;;;17.00;99.90;;;;;;5053802;28;20433;-81
2021/09/16 11:36:11;;;;;;;3.30;1.50;;;17.00;99.90;;;;;;5053757;28;20429;-80
2021/09/16 11:38:37;;;;;;;7.20;2.20;;;17.00;99.90;;;;;;5053643;28;20485;-80
2021/09/16 11:41:05;;;;;;;3.87;1.87;;;17.00;99.90;;;;;;5053659;28;20430;-80
2021/09/16 11:43:32;;;;;;;4.27;1.03;;;16.90;99.90;;;;;;5053632;28;20430;-80
2021/09/16 11:46:02;;;;;;;4.43;1.97;;;16.90;99.90;;;;;;5053036;28;20838;-80
2021/09/16 11:48:29;;;;;;;3.60;1.27;;;17.00;99.90;;;;;;5053478;28;20433;-80
2021/09/16 11:51:02;;;;;;;4.90;1.70;;;17.00;99.90;;;;;;5053842;28;20913;-80
2021/09/16 11:53:31;;;;;;;2.23;1.57;;;17.00;99.90;;;;;;5053512;28;20435;-80
2021/09/16 11:56:00;;;;;;;4.10;1.50;;;17.00;99.90;;;;;;5053140;28;20809;-80
2021/09/16 11:58:29;;;;;;;2.60;2.13;;;16.90;99.90;;;;;;5053338;28;20433;-80
2021/09/16 12:00:58;;;;;;;2.57;1.73;;;16.90;99.90;;;;;;5053380;28;20478;-80
2021/09/16 12:03:28;;;;;;;1.83;1.30;;;16.90;99.90;;;;;;5053398;28;20434;-80
2021/09/16 12:05:55;;;;;;;4.43;2.00;;;16.80;99.90;;;;;;5052286;28;20933;-80
2021/09/16 12:08:25;;;;;;;2.70;1.03;;;16.80;99.90;;;;;;5053208;28;20437;-80
2021/09/16 12:10:55;;;;;;;1.60;1.37;;;16.80;99.90;;;;;;5053283;28;20493;-80
2021/09/16 12:13:24;;;;;;;2.00;1.07;;;16.90;99.90;;;;;;5053193;28;20437;-80
2021/09/16 12:15:53;;;;;;;3.97;1.43;;;16.90;99.90;;;;;;5053188;28;20429;-81
2021/09/16 12:18:20;;;;;;;3.13;1.60;;;16.90;99.90;;;;;;5053272;28;20422;-81
2021/09/16 12:20:49;;;;;;;3.90;0.70;;;16.90;99.90;;;;;;5053086;28;20430;-81
2021/09/16 12:23:16;;;;;;;3.53;0.70;;;16.90;99.90;;;;;;5052843;28;20932;-81
2021/09/16 12:25:51;;;;;;;1.00;0.93;;;16.80;99.90;;;;;;5053130;28;20425;-80
2021/09/16 12:28:18;;;;;;;3.53;1.70;;;16.80;99.90;;;;;;5052555;28;20474;-81
2021/09/16 12:30:45;;;;;;;2.50;1.10;;;16.80;99.90;;;;;;5052694;28;20433;-81
2021/09/16 12:33:35;;;;;;;1.70;1.10;;;16.80;99.90;;;;;;5052914;28;20431;-81
2021/09/16 12:36:11;;;;;;;1.20;1.10;;;16.80;99.90;;;;;;5053037;28;20407;-82
2021/09/16 12:38:40;;;;;;;0.90;0.77;;;16.90;99.90;;;;;;5053277;28;20473;-81
2021/09/16 12:41:35;;;;;;;1.30;0.80;;;16.80;99.90;;;;;;5052997;28;20874;-81
2021/09/16 12:44:07;;;;;;;1.03;0.67;;;16.80;99.90;;;;;;5053090;28;20781;-81
2021/09/16 12:46:42;;;;;;;1.70;1.40;;;16.80;99.90;;;;;;5052541;28;20498;-81
2021/09/16 12:49:21;;;;;;;2.97;0.70;;;16.90;99.90;;;;;;5052554;28;20465;-82
2021/09/16 12:51:54;;;;;;;0.60;0.50;;;17.00;99.90;;;;;;5052915;28;20433;-81
2021/09/16 12:54:21;;;;;;;2.63;1.03;;;17.00;99.90;;;;;;5052841;28;20438;-81